Terminal Aerodrome Forecast
Issued by NWS Twin Cities, MN

Home | Current Version | Previous Version | Text Only | Print | Product List | Glossary On
Versions: 1 2 3 4 5 6 7 8 9 10 11 12 13 14 15
000
FTUS43 KMPX 290520
TAFSTC
TAF
KSTC 290520Z 2906/3006 17008KT P6SM BKN100
     FM291200 19004KT P6SM -SHRA BKN020 OVC050
     FM291600 31010G18KT 6SM -SHRA BR VCTS OVC018CB
      TEMPO 2917/2920 5SM -TSRA
     FM292100 34015G20KT P6SM VCSH BKN030
     FM300100 35010KT P6SM SKC=

USA.gov is the U.S. government's official web portal to all federal, state and local government web resources and services.